Terminal Aerodrome Forecast
Issued by NWS

Home | Current Version | Previous Version | Text Only | Print | Product List | Glossary On
Versions: 1 2 3 4 5 6 7 8 9 10 11 12 13 14 15 16 17 18 19 20 21 22 23 24 25 26 27 28 29 30 31 32 33 34
000
FTUS45 KGJT 210528 AAA
TAFVEL
TAF AMD
KVEL 210528Z 2105/2206 36006KT P6SM VCSH BKN090 OVC120
      TEMPO 2106/2108 -SHRA OVC070
     FM211200 VRB04KT P6SM SCT120
     FM211800 19006KT P6SM BKN200
     FM220000 26005KT P6SM SCT120 BKN200=

USA.gov is the U.S. government's official web portal to all federal, state and local government web resources and services.